Plato, Indiana
Current Conditions -  °F | °C
As of 4:15 PM on Saturday 22 Nov 2014 (Local Time) from KIRS Reporting Station
Light Rain Light Rain  
Wind Chill: 39°   Ceiling: 2200
Heat Index: 45°   Visibility: 4mi
Dew Point: 43°   Wind: 12mph
Humidity: 93%   Direction: 200°SSW
Pressure: 29.93"   Gusts: NA
Location:  41.6561°N, 85.3683°W
Report Text: KIRS 222115Z AUTO 20010KT 4SM -RA OVC022 07/06 A2993 RMK AO2
Loading
Personal Weather Stations






























Interactive Weather Map New forecast layout! Learn more

10-Day Weather Forecast

Advertisements
Track Severe Weather on mobile